Time;durP1;ratioP1;P1;durP2;ratioP2;P2;SDS_P1;SDS_P2;PMS_P1;PMS_P2;Temp;Humidity;BMP_temperature;BMP_pressure;BME280_temperature;BME280_humidity;BME280_pressure;Samples;Min_cycle;Max_cycle;Signal;HPM_P1;HPM_P2
2022/04/27 00:01:52;;;;;;;1.48;0.70;;;23.00;42.70;;;;;;4997729;28;20504;-44
2022/04/27 00:04:18;;;;;;;1.92;1.08;;;23.00;42.70;;;;;;5004945;28;20034;-43
2022/04/27 00:06:44;;;;;;;1.52;0.70;;;23.00;42.60;;;;;;5004458;28;20720;-43
2022/04/27 00:09:11;;;;;;;2.05;0.80;;;23.00;42.60;;;;;;5004124;28;20041;-43
2022/04/27 00:11:37;;;;;;;1.40;0.57;;;23.00;42.60;;;;;;5004404;28;20474;-43
2022/04/27 00:14:03;;;;;;;0.82;0.50;;;23.00;42.60;;;;;;5005049;28;20038;-44
2022/04/27 00:16:30;;;;;;;1.40;0.70;;;23.00;42.60;;;;;;5004462;28;20033;-44
2022/04/27 00:18:55;;;;;;;1.15;0.73;;;22.90;42.50;;;;;;5005093;28;20026;-44
2022/04/27 00:21:21;;;;;;;5.03;0.90;;;23.00;42.50;;;;;;5004327;28;20042;-44
2022/04/27 00:23:47;;;;;;;0.90;0.70;;;23.00;42.50;;;;;;5005087;28;20061;-43
2022/04/27 00:26:13;;;;;;;1.13;0.50;;;22.90;42.50;;;;;;5004785;28;20024;-44
2022/04/27 00:28:39;;;;;;;1.20;0.63;;;22.90;42.50;;;;;;5004743;28;20022;-43
2022/04/27 00:31:05;;;;;;;2.10;0.90;;;22.90;42.60;;;;;;5004248;28;20095;-44
2022/04/27 00:33:32;;;;;;;1.70;0.70;;;22.90;42.60;;;;;;5004764;28;20076;-44
2022/04/27 00:35:58;;;;;;;1.65;0.70;;;22.90;42.70;;;;;;5004791;28;20030;-44
2022/04/27 00:38:23;;;;;;;1.33;0.52;;;22.90;42.60;;;;;;5008385;28;20108;-44
2022/04/27 00:40:49;;;;;;;1.20;0.50;;;22.90;42.50;;;;;;5008054;28;20033;-44
2022/04/27 00:43:15;;;;;;;0.70;0.45;;;22.90;42.60;;;;;;5008291;28;20041;-43
2022/04/27 00:45:41;;;;;;;0.98;0.55;;;22.90;42.50;;;;;;5008252;28;20026;-43
2022/04/27 00:48:09;;;;;;;1.38;0.70;;;22.90;42.50;;;;;;5008112;28;20053;-44
2022/04/27 00:50:35;;;;;;;0.73;0.47;;;22.90;42.50;;;;;;5008002;28;20105;-43
2022/04/27 00:53:01;;;;;;;0.63;0.40;;;22.90;42.50;;;;;;5007577;28;20168;-43
2022/04/27 00:55:30;;;;;;;1.00;0.50;;;22.80;42.40;;;;;;5007737;28;20041;-44
2022/04/27 00:57:56;;;;;;;1.23;0.60;;;22.90;42.50;;;;;;5007710;28;20080;-44
2022/04/27 01:00:22;;;;;;;1.30;0.50;;;22.90;42.50;;;;;;5001538;28;20038;-44
2022/04/27 01:02:48;;;;;;;0.98;0.50;;;22.80;42.30;;;;;;5006953;28;20064;-44
2022/04/27 01:05:14;;;;;;;1.08;0.55;;;22.80;42.30;;;;;;5007405;28;20026;-44
2022/04/27 01:07:41;;;;;;;1.08;0.50;;;22.90;42.40;;;;;;5007261;28;20068;-43
2022/04/27 01:10:08;;;;;;;1.25;0.50;;;22.80;42.30;;;;;;5006382;28;20026;-44
2022/04/27 01:12:35;;;;;;;1.27;0.57;;;22.80;42.30;;;;;;5006947;28;20084;-44
2022/04/27 01:15:01;;;;;;;0.95;0.50;;;22.80;42.40;;;;;;5007697;28;20497;-43
2022/04/27 01:17:26;;;;;;;1.20;0.55;;;22.80;42.40;;;;;;5007486;28;20034;-44
2022/04/27 01:19:52;;;;;;;1.45;0.57;;;22.80;42.40;;;;;;5007088;28;20601;-44
2022/04/27 01:22:18;;;;;;;1.00;0.40;;;22.80;42.40;;;;;;5006692;28;20042;-44
2022/04/27 01:24:44;;;;;;;0.88;0.40;;;22.80;42.40;;;;;;5007578;28;20058;-43
2022/04/27 01:27:11;;;;;;;0.90;0.50;;;22.80;42.40;;;;;;5007419;28;20061;-43
2022/04/27 01:29:37;;;;;;;1.05;0.38;;;22.70;42.30;;;;;;5007439;28;20033;-43
2022/04/27 01:32:03;;;;;;;0.50;0.30;;;22.70;42.30;;;;;;5007079;28;20551;-44
2022/04/27 01:34:30;;;;;;;1.00;0.50;;;22.80;42.30;;;;;;5007151;28;20038;-43
2022/04/27 01:37:59;;;;;;;1.08;0.50;;;22.80;42.20;;;;;;5007115;28;20026;-44
2022/04/27 01:39:45;;;;;;;0.82;0.30;;;22.80;42.30;;;;;;5007022;28;20038;-44
2022/04/27 01:42:10;;;;;;;1.20;0.40;;;22.80;42.30;;;;;;5006798;28;20022;-44
2022/04/27 01:44:37;;;;;;;1.02;0.40;;;22.70;42.30;;;;;;5006959;28;20058;-43
2022/04/27 01:47:03;;;;;;;0.90;0.40;;;22.70;42.20;;;;;;5006038;28;20030;-44
2022/04/27 01:49:29;;;;;;;1.13;0.40;;;22.70;42.20;;;;;;5006878;28;20065;-43
2022/04/27 01:54:39;;;;;;;0.80;0.40;;;22.70;42.20;;;;;;5006962;28;20025;-44
2022/04/27 01:57:07;;;;;;;1.38;0.50;;;22.70;42.30;;;;;;5007062;28;20654;-43
2022/04/27 01:59:34;;;;;;;1.00;0.43;;;22.80;42.30;;;;;;5006905;28;20030;-44
2022/04/27 02:02:00;;;;;;;1.05;0.55;;;22.70;42.20;;;;;;5001972;28;20030;-42
2022/04/27 02:04:25;;;;;;;1.23;0.50;;;22.70;42.30;;;;;;5006663;28;20044;-43
2022/04/27 02:06:51;;;;;;;1.05;0.40;;;22.70;42.20;;;;;;5006016;28;20109;-43
2022/04/27 02:09:17;;;;;;;0.50;0.30;;;22.70;42.30;;;;;;5006530;28;20069;-43
2022/04/27 02:11:42;;;;;;;0.63;0.30;;;22.70;42.20;;;;;;5005888;28;20101;-43
2022/04/27 02:14:10;;;;;;;0.68;0.40;;;22.70;42.20;;;;;;5006134;28;20084;-43
2022/04/27 02:16:37;;;;;;;0.57;0.30;;;22.70;42.20;;;;;;5006254;28;20547;-43
2022/04/27 02:19:04;;;;;;;0.80;0.50;;;22.70;42.20;;;;;;5005987;28;20536;-43
2022/04/27 02:21:31;;;;;;;0.57;0.28;;;22.60;42.00;;;;;;5005577;28;20064;-43
2022/04/27 02:23:57;;;;;;;0.50;0.25;;;22.70;42.10;;;;;;5006150;28;20030;-43
2022/04/27 02:26:22;;;;;;;0.88;0.30;;;22.60;42.00;;;;;;5006106;28;20032;-43
2022/04/27 02:28:48;;;;;;;0.77;0.30;;;22.70;42.10;;;;;;4998006;28;20178;-43
2022/04/27 02:31:14;;;;;;;0.88;0.30;;;22.60;42.00;;;;;;5001158;28;20078;-44
2022/04/27 02:33:40;;;;;;;0.40;0.30;;;22.70;42.10;;;;;;5004231;28;20026;-44
2022/04/27 02:36:06;;;;;;;0.50;0.30;;;22.60;42.00;;;;;;5005308;28;20698;-43
2022/04/27 02:38:31;;;;;;;0.88;0.40;;;22.60;42.10;;;;;;5002606;28;20406;-44
2022/04/27 02:40:57;;;;;;;0.82;0.38;;;22.60;42.00;;;;;;5002103;28;20057;-43
2022/04/27 02:43:23;;;;;;;0.45;0.30;;;22.60;42.10;;;;;;5005962;28;20026;-44
2022/04/27 02:45:48;;;;;;;1.13;0.40;;;22.60;42.10;;;;;;5005673;28;20022;-43
2022/04/27 02:48:14;;;;;;;0.95;0.35;;;22.60;42.10;;;;;;5004074;28;20062;-44
2022/04/27 02:53:25;;;;;;;1.30;0.30;;;22.60;42.10;;;;;;5005566;28;20128;-44
2022/04/27 02:55:51;;;;;;;0.93;0.50;;;22.60;42.10;;;;;;5005828;28;20450;-43
2022/04/27 02:58:16;;;;;;;0.65;0.32;;;22.60;42.00;;;;;;5005442;28;20087;-43
2022/04/27 03:00:44;;;;;;;0.68;0.30;;;22.60;42.10;;;;;;5002035;28;20030;-43
2022/04/27 03:03:11;;;;;;;0.98;0.40;;;22.60;42.00;;;;;;4994367;28;20145;-43
2022/04/27 03:05:36;;;;;;;0.57;0.28;;;22.60;42.00;;;;;;4999266;28;20109;-43
2022/04/27 03:08:03;;;;;;;1.40;0.38;;;22.60;42.00;;;;;;5001494;28;20141;-43
2022/04/27 03:10:28;;;;;;;0.50;0.25;;;22.60;42.00;;;;;;5004386;28;20038;-44
2022/04/27 03:12:54;;;;;;;0.57;0.17;;;22.60;42.00;;;;;;5004950;28;20108;-43
2022/04/27 03:15:20;;;;;;;0.40;0.30;;;22.60;42.00;;;;;;5000795;28;20018;-43
2022/04/27 03:18:16;;;;;;;0.90;0.32;;;22.60;42.00;;;;;;5004661;28;20038;-43
2022/04/27 03:20:31;;;;;;;0.28;0.20;;;22.60;42.00;;;;;;5002283;28;20030;-43
2022/04/27 03:22:57;;;;;;;0.50;0.25;;;22.60;42.00;;;;;;5004521;28;20401;-43
2022/04/27 03:25:22;;;;;;;0.57;0.30;;;22.60;42.00;;;;;;5004930;28;20092;-43
2022/04/27 03:27:48;;;;;;;1.05;0.30;;;22.60;42.10;;;;;;5005213;28;20096;-43
2022/04/27 03:30:14;;;;;;;0.60;0.30;;;22.60;42.00;;;;;;5004389;28;20034;-44
2022/04/27 03:32:39;;;;;;;0.47;0.20;;;22.60;42.10;;;;;;5003032;28;20397;-44
2022/04/27 03:35:05;;;;;;;1.30;0.50;;;22.50;42.00;;;;;;5005038;28;20045;-43
2022/04/27 03:37:31;;;;;;;0.43;0.28;;;22.50;42.00;;;;;;5004617;28;20096;-44
2022/04/27 03:39:57;;;;;;;0.80;0.30;;;22.50;42.00;;;;;;5005037;28;20033;-44
2022/04/27 03:42:23;;;;;;;0.52;0.30;;;22.50;42.00;;;;;;4999727;28;20061;-43
2022/04/27 03:44:48;;;;;;;0.63;0.30;;;22.50;42.00;;;;;;5000792;28;20101;-43
2022/04/27 03:47:14;;;;;;;0.98;0.30;;;22.50;42.00;;;;;;5005242;28;20049;-44
2022/04/27 03:49:39;;;;;;;0.73;0.40;;;22.50;42.00;;;;;;5004887;28;20026;-44
2022/04/27 03:52:05;;;;;;;0.82;0.35;;;22.50;42.10;;;;;;5004892;28;20030;-43
2022/04/27 03:54:31;;;;;;;0.40;0.30;;;22.50;42.00;;;;;;5003691;28;20654;-43
2022/04/27 03:56:58;;;;;;;0.50;0.20;;;22.50;42.00;;;;;;5005198;28;20049;-43
2022/04/27 03:59:24;;;;;;;0.70;0.30;;;22.50;42.10;;;;;;5005416;28;20037;-43
2022/04/27 04:01:50;;;;;;;0.40;0.22;;;22.50;42.00;;;;;;5004391;28;20026;-43
2022/04/27 04:04:15;;;;;;;0.40;0.20;;;22.50;42.10;;;;;;4990074;28;20186;-43
2022/04/27 04:06:42;;;;;;;0.55;0.20;;;22.50;42.00;;;;;;4986604;28;20387;-43
2022/04/27 04:09:09;;;;;;;0.70;0.30;;;22.50;42.10;;;;;;5004378;28;20498;-43
2022/04/27 04:11:35;;;;;;;0.93;0.32;;;22.50;42.10;;;;;;5007272;28;20041;-44
2022/04/27 04:14:01;;;;;;;0.40;0.20;;;22.50;42.10;;;;;;5008455;28;20014;-43
2022/04/27 04:16:27;;;;;;;0.77;0.30;;;22.50;42.20;;;;;;5007307;28;20077;-43
2022/04/27 04:18:52;;;;;;;0.45;0.30;;;22.50;42.20;;;;;;5007671;28;20072;-43
2022/04/27 04:21:18;;;;;;;0.52;0.20;;;22.50;42.30;;;;;;5001137;28;20155;-43
2022/04/27 04:23:44;;;;;;;0.45;0.20;;;22.50;42.30;;;;;;5004794;28;20065;-43
2022/04/27 04:28:53;;;;;;;1.15;0.40;;;22.50;42.40;;;;;;5008286;28;20026;-44
2022/04/27 04:31:19;;;;;;;0.82;0.38;;;22.60;42.40;;;;;;5007710;28;20080;-43
2022/04/27 04:33:45;;;;;;;0.77;0.28;;;22.60;42.30;;;;;;5007839;28;20044;-44
2022/04/27 04:36:11;;;;;;;0.60;0.30;;;22.70;42.40;;;;;;5006954;28;20030;-44
2022/04/27 04:38:38;;;;;;;0.40;0.20;;;22.70;42.30;;;;;;4986845;28;20046;-43
2022/04/27 04:41:04;;;;;;;0.43;0.22;;;22.70;42.40;;;;;;5001833;28;20026;-44
2022/04/27 04:43:32;;;;;;;0.43;0.30;;;22.80;42.20;;;;;;5005354;28;20119;-43
2022/04/27 04:45:59;;;;;;;0.63;0.35;;;22.80;42.20;;;;;;5007534;28;20484;-44
2022/04/27 04:48:25;;;;;;;1.05;0.38;;;22.90;42.20;;;;;;5007478;28;20030;-43
2022/04/27 04:50:50;;;;;;;0.50;0.30;;;22.90;42.90;;;;;;5004912;28;20025;-43
2022/04/27 04:53:19;;;;;;;1.42;0.57;;;23.00;42.00;;;;;;5006498;28;20036;-44
2022/04/27 04:55:45;;;;;;;0.45;0.20;;;23.00;42.00;;;;;;5001938;28;20038;-43
2022/04/27 04:58:10;;;;;;;0.30;0.20;;;23.00;41.90;;;;;;5003628;28;20578;-43
2022/04/27 05:00:37;;;;;;;0.82;0.25;;;23.10;41.90;;;;;;5016104;28;20036;-42
2022/04/27 05:03:03;;;;;;;0.82;0.20;;;23.10;41.90;;;;;;5013210;28;20036;-43
2022/04/27 05:05:29;;;;;;;0.70;0.30;;;23.10;41.90;;;;;;5016457;28;20132;-43
2022/04/27 05:07:54;;;;;;;0.82;0.30;;;23.20;42.00;;;;;;5016218;28;20725;-44
2022/04/27 05:10:20;;;;;;;0.30;0.20;;;23.20;41.90;;;;;;5017131;28;20025;-43
2022/04/27 05:12:46;;;;;;;1.23;0.50;;;23.20;42.00;;;;;;5016458;28;20048;-43
2022/04/27 05:15:12;;;;;;;0.75;0.30;;;23.20;42.00;;;;;;5015894;28;20542;-43
2022/04/27 05:17:38;;;;;;;1.55;0.20;;;23.20;42.10;;;;;;5014380;28;20113;-43
2022/04/27 05:20:06;;;;;;;0.93;0.40;;;23.30;42.20;;;;;;5015849;28;20025;-43
2022/04/27 05:22:38;;;;;;;0.65;0.35;;;23.30;42.10;;;;;;5014744;28;20038;-43
2022/04/27 05:25:05;;;;;;;0.85;0.30;;;23.30;42.00;;;;;;5014407;28;20053;-43
2022/04/27 05:27:31;;;;;;;0.95;0.40;;;23.30;42.10;;;;;;5015441;28;20125;-43
2022/04/27 05:32:45;;;;;;;1.30;0.47;;;23.40;42.00;;;;;;5015655;28;20022;-43
2022/04/27 05:35:11;;;;;;;1.20;0.47;;;23.40;42.00;;;;;;5013644;28;20125;-43
2022/04/27 05:37:38;;;;;;;1.05;0.45;;;23.40;41.90;;;;;;5007537;28;20113;-41
2022/04/27 05:40:05;;;;;;;2.72;0.65;;;23.40;42.20;;;;;;4986264;28;20052;-42
2022/04/27 05:42:31;;;;;;;5.95;1.63;;;23.40;42.20;;;;;;5012377;28;20022;-42
2022/04/27 05:44:57;;;;;;;6.10;1.88;;;23.40;42.30;;;;;;5006908;28;20101;-42
2022/04/27 05:47:25;;;;;;;7.00;2.42;;;23.40;42.50;;;;;;5004273;28;20030;-42
2022/04/27 05:49:51;;;;;;;5.45;2.03;;;23.40;42.90;;;;;;5005850;28;20026;-42
2022/04/27 05:52:17;;;;;;;7.38;2.80;;;23.40;42.80;;;;;;5005779;28;20025;-42
2022/04/27 05:54:43;;;;;;;7.88;2.92;;;23.40;42.80;;;;;;5006478;28;20029;-41
2022/04/27 05:57:08;;;;;;;7.32;2.30;;;23.40;42.70;;;;;;5006233;28;20029;-42
2022/04/27 05:59:34;;;;;;;10.00;2.92;;;23.40;42.60;;;;;;5006475;28;20036;-42
2022/04/27 06:02:00;;;;;;;7.40;2.28;;;23.40;42.90;;;;;;5004617;28;20400;-42
2022/04/27 06:04:26;;;;;;;7.85;2.47;;;23.40;42.90;;;;;;5001587;28;20041;-42
2022/04/27 06:06:53;;;;;;;7.22;2.42;;;23.40;42.60;;;;;;5012374;28;20347;-42
2022/04/27 06:09:19;;;;;;;5.30;2.00;;;23.50;42.30;;;;;;5011673;28;20373;-42
2022/04/27 06:11:45;;;;;;;6.70;2.20;;;23.40;42.10;;;;;;5012674;28;20022;-42
2022/04/27 06:14:11;;;;;;;5.70;1.95;;;23.50;42.10;;;;;;5009713;28;20033;-42
2022/04/27 06:16:36;;;;;;;7.20;2.13;;;23.50;41.90;;;;;;5009786;28;20397;-42
2022/04/27 06:19:03;;;;;;;4.10;1.60;;;23.50;41.90;;;;;;5014413;28;20013;-41
2022/04/27 06:21:31;;;;;;;4.90;1.85;;;23.50;41.80;;;;;;5012513;28;20029;-42
2022/04/27 06:23:59;;;;;;;4.65;1.75;;;23.50;41.90;;;;;;5013711;28;20474;-43
2022/04/27 06:26:26;;;;;;;5.43;1.67;;;23.50;41.70;;;;;;5008923;28;20040;-42
2022/04/27 06:28:52;;;;;;;4.82;1.55;;;23.50;41.90;;;;;;5013873;28;20010;-42
2022/04/27 06:31:18;;;;;;;4.63;1.13;;;23.50;42.00;;;;;;5013910;28;20072;-43
2022/04/27 06:33:44;;;;;;;6.38;1.40;;;23.50;42.00;;;;;;5010438;28;20034;-42
2022/04/27 06:36:10;;;;;;;5.28;1.38;;;23.50;42.00;;;;;;5014070;28;20099;-43
2022/04/27 06:38:36;;;;;;;4.63;1.50;;;23.50;41.70;;;;;;5009455;28;20105;-42
2022/04/27 06:41:03;;;;;;;5.00;1.30;;;23.50;41.60;;;;;;5003866;28;20713;-42
2022/04/27 06:43:28;;;;;;;5.32;1.63;;;23.50;41.60;;;;;;5003563;28;20034;-43
2022/04/27 06:45:54;;;;;;;3.72;1.33;;;23.50;41.50;;;;;;5004978;28;20747;-43
2022/04/27 06:48:20;;;;;;;3.30;1.25;;;23.60;41.50;;;;;;5004274;28;20033;-43
2022/04/27 06:50:46;;;;;;;3.40;1.10;;;23.60;41.50;;;;;;5003615;28;20026;-43
2022/04/27 06:53:12;;;;;;;4.20;1.58;;;23.60;41.40;;;;;;4999027;28;20034;-43
2022/04/27 06:55:37;;;;;;;5.72;1.23;;;23.60;41.40;;;;;;5004934;28;20083;-42
2022/04/27 06:58:03;;;;;;;6.53;1.98;;;23.60;41.40;;;;;;4997684;28;20071;-42
2022/04/27 07:00:29;;;;;;;3.80;1.00;;;23.60;41.40;;;;;;4992083;28;20885;-43
2022/04/27 07:02:55;;;;;;;3.80;1.38;;;23.60;41.30;;;;;;4996592;28;20029;-43
2022/04/27 07:05:24;;;;;;;3.17;1.15;;;23.60;41.30;;;;;;4996294;28;20362;-43
2022/04/27 07:07:50;;;;;;;4.60;1.63;;;23.60;41.30;;;;;;4996797;28;20038;-42
2022/04/27 07:10:18;;;;;;;3.25;1.17;;;23.60;41.20;;;;;;4998523;28;20033;-42
2022/04/27 07:12:46;;;;;;;4.70;1.30;;;23.60;41.20;;;;;;4995458;28;20036;-42
2022/04/27 07:15:11;;;;;;;3.17;1.25;;;23.60;41.20;;;;;;4997715;28;20036;-43
2022/04/27 07:17:37;;;;;;;3.67;1.13;;;23.60;41.10;;;;;;4995691;28;20022;-43
2022/04/27 07:20:03;;;;;;;5.32;1.85;;;23.60;41.10;;;;;;5004704;28;20029;-43
2022/04/27 07:22:29;;;;;;;5.30;1.15;;;23.60;41.10;;;;;;5003743;28;20634;-43
2022/04/27 07:24:55;;;;;;;3.45;1.30;;;23.60;41.10;;;;;;5004484;28;20042;-42
2022/04/27 07:27:20;;;;;;;3.08;0.88;;;23.60;41.10;;;;;;5006029;28;20025;-42
2022/04/27 07:29:46;;;;;;;4.45;1.50;;;23.60;41.10;;;;;;5005496;28;20505;-43
2022/04/27 07:32:12;;;;;;;2.95;1.00;;;23.60;41.10;;;;;;5002594;28;20030;-43
2022/04/27 07:34:37;;;;;;;3.10;1.20;;;23.60;41.00;;;;;;4985825;28;20037;-42
2022/04/27 07:37:05;;;;;;;2.13;0.73;;;23.60;41.00;;;;;;4990503;28;20022;-43
2022/04/27 07:39:32;;;;;;;2.78;0.90;;;23.60;41.00;;;;;;5003815;28;20038;-42
2022/04/27 07:41:57;;;;;;;2.40;0.75;;;23.60;41.00;;;;;;5003788;28;20502;-42
2022/04/27 07:44:23;;;;;;;1.90;0.73;;;23.60;41.00;;;;;;5003820;28;20037;-43
2022/04/27 07:46:50;;;;;;;2.25;0.75;;;23.70;41.00;;;;;;5003907;28;20018;-42
2022/04/27 07:49:19;;;;;;;2.65;1.15;;;23.60;41.00;;;;;;5003868;28;20046;-42
2022/04/27 07:51:45;;;;;;;3.53;1.30;;;23.60;40.90;;;;;;5004254;28;20057;-43
2022/04/27 07:54:12;;;;;;;2.45;0.98;;;23.70;40.90;;;;;;5005021;28;20526;-42
2022/04/27 07:56:38;;;;;;;2.13;0.90;;;23.70;40.90;;;;;;5004804;28;20378;-42
2022/04/27 07:59:03;;;;;;;2.83;1.15;;;23.60;40.80;;;;;;5005341;28;20041;-42
2022/04/27 08:01:30;;;;;;;2.78;1.00;;;23.60;40.70;;;;;;5004821;28;20547;-42
2022/04/27 08:03:56;;;;;;;1.83;0.70;;;23.60;40.80;;;;;;5004853;28;20079;-42
2022/04/27 08:06:22;;;;;;;3.88;0.80;;;23.70;40.80;;;;;;5004979;28;20172;-42
2022/04/27 08:08:48;;;;;;;3.10;1.10;;;23.60;40.80;;;;;;5005102;28;20120;-42
2022/04/27 08:11:15;;;;;;;3.45;0.88;;;23.60;40.70;;;;;;5003558;28;20057;-42
2022/04/27 08:13:42;;;;;;;3.08;1.05;;;23.60;40.60;;;;;;5004787;28;20030;-43
2022/04/27 08:16:09;;;;;;;3.05;1.08;;;23.60;40.70;;;;;;5005009;28;20030;-42
2022/04/27 08:18:35;;;;;;;2.00;0.88;;;23.60;40.60;;;;;;5003274;28;20045;-42
2022/04/27 08:21:16;;;;;;;3.35;1.13;;;23.60;40.60;;;;;;5004455;28;20026;-42
2022/04/27 08:23:46;;;;;;;3.50;1.13;;;23.60;40.60;;;;;;5004443;28;20034;-43
2022/04/27 08:26:12;;;;;;;2.97;1.10;;;23.60;40.60;;;;;;5004616;28;20505;-42
2022/04/27 08:28:39;;;;;;;3.90;1.00;;;23.60;40.60;;;;;;5005040;28;20030;-43
2022/04/27 08:31:06;;;;;;;2.55;0.80;;;23.60;40.60;;;;;;5004349;28;20030;-41
2022/04/27 08:33:32;;;;;;;4.22;1.20;;;23.60;40.50;;;;;;4997769;28;20537;-42
2022/04/27 08:35:59;;;;;;;2.17;0.85;;;23.60;40.60;;;;;;4997598;28;20037;-42
2022/04/27 08:38:25;;;;;;;2.95;0.98;;;23.60;40.50;;;;;;5004739;28;20117;-43
2022/04/27 08:40:51;;;;;;;2.40;0.90;;;23.60;40.50;;;;;;5004531;28;20224;-42
2022/04/27 08:43:17;;;;;;;1.67;0.70;;;23.50;40.60;;;;;;5002740;28;20038;-42
2022/04/27 08:45:44;;;;;;;2.22;0.88;;;23.60;40.50;;;;;;5007774;28;20517;-42
2022/04/27 08:48:12;;;;;;;2.92;1.25;;;23.50;40.40;;;;;;5010360;28;20393;-42
2022/04/27 08:50:38;;;;;;;2.88;0.82;;;23.50;40.50;;;;;;5011427;28;20609;-42
2022/04/27 08:53:04;;;;;;;3.70;1.15;;;23.50;40.60;;;;;;5003896;28;20105;-42
2022/04/27 08:55:30;;;;;;;2.00;0.98;;;23.50;40.70;;;;;;5004680;28;20121;-42
2022/04/27 08:58:16;;;;;;;2.92;1.08;;;23.50;40.60;;;;;;5006037;28;20034;-42
2022/04/27 09:00:43;;;;;;;2.28;0.80;;;23.50;40.70;;;;;;5008014;28;20530;-42
2022/04/27 09:03:29;;;;;;;3.03;1.20;;;23.50;40.70;;;;;;5007435;28;20041;-42
2022/04/27 09:06:12;;;;;;;2.35;0.98;;;23.50;40.80;;;;;;5008263;28;20523;-42
2022/04/27 09:08:49;;;;;;;1.73;0.70;;;23.50;40.80;;;;;;5002442;28;20061;-43
2022/04/27 09:11:28;;;;;;;2.00;0.63;;;23.50;40.80;;;;;;5007515;28;20026;-42
2022/04/27 09:13:54;;;;;;;2.33;0.70;;;23.50;40.80;;;;;;5007739;28;20026;-43
2022/04/27 09:16:22;;;;;;;2.17;0.80;;;23.60;40.70;;;;;;5007117;28;20117;-42
2022/04/27 09:22:04;;;;;;;3.20;0.70;;;23.60;40.70;;;;;;5006887;28;20263;-42
2022/04/27 09:24:49;;;;;;;1.75;0.63;;;23.60;40.70;;;;;;4987640;28;20120;-42
2022/04/27 09:27:18;;;;;;;1.65;0.50;;;23.60;40.70;;;;;;4988101;28;20030;-42
2022/04/27 09:30:01;;;;;;;3.17;0.93;;;23.60;40.60;;;;;;4987999;28;20494;-42
2022/04/27 09:32:27;;;;;;;1.48;0.63;;;23.60;40.60;;;;;;4985809;28;20414;-42
2022/04/27 09:34:55;;;;;;;2.25;0.75;;;23.60;40.60;;;;;;4988036;28;20110;-42
2022/04/27 09:37:24;;;;;;;2.03;0.60;;;23.60;40.50;;;;;;4995465;28;20022;-42
2022/04/27 09:40:13;;;;;;;2.95;0.88;;;23.60;40.60;;;;;;5007321;28;20026;-43
2022/04/27 09:42:44;;;;;;;2.30;0.80;;;23.60;40.60;;;;;;5006828;28;20371;-42
2022/04/27 09:45:25;;;;;;;1.60;0.60;;;23.60;40.50;;;;;;5007285;28;20018;-43
2022/04/27 09:47:53;;;;;;;1.17;0.52;;;23.60;40.50;;;;;;5007197;28;20026;-42
2022/04/27 09:50:19;;;;;;;1.95;0.70;;;23.70;40.50;;;;;;5006754;28;20022;-42
2022/04/27 09:52:46;;;;;;;1.80;0.55;;;23.70;40.50;;;;;;5006817;28;20033;-42
2022/04/27 09:55:12;;;;;;;2.45;0.77;;;23.70;40.50;;;;;;5007038;28;20031;-42
2022/04/27 09:57:39;;;;;;;2.63;0.82;;;23.60;40.50;;;;;;5007185;28;20548;-43
2022/04/27 10:00:06;;;;;;;1.50;0.68;;;23.70;40.50;;;;;;5006857;28;20034;-42
2022/04/27 10:02:34;;;;;;;1.45;0.47;;;23.70;40.50;;;;;;5006273;28;20032;-42
2022/04/27 10:05:00;;;;;;;1.63;0.65;;;23.70;40.50;;;;;;5006704;28;20505;-42
2022/04/27 10:07:27;;;;;;;2.70;0.70;;;23.70;40.40;;;;;;5006013;28;20045;-42
2022/04/27 10:09:54;;;;;;;1.50;0.57;;;23.70;40.50;;;;;;5006395;28;20302;-42
2022/04/27 10:12:19;;;;;;;2.03;0.75;;;23.70;40.30;;;;;;5006690;28;20101;-41
2022/04/27 10:14:45;;;;;;;2.22;0.65;;;23.60;40.20;;;;;;5007213;28;20121;-43
2022/04/27 10:17:12;;;;;;;1.60;0.68;;;23.60;40.30;;;;;;5006979;28;20040;-43
2022/04/27 10:19:44;;;;;;;1.83;0.60;;;23.60;40.30;;;;;;5006907;28;20034;-42
2022/04/27 10:22:31;;;;;;;1.33;0.55;;;23.60;40.20;;;;;;5006078;28;20049;-42
2022/04/27 10:25:04;;;;;;;2.40;0.60;;;23.60;40.30;;;;;;5005642;28;20022;-42
2022/04/27 10:27:40;;;;;;;1.10;0.50;;;23.60;40.20;;;;;;5006506;28;20452;-43
2022/04/27 10:30:08;;;;;;;2.10;1.02;;;23.60;40.30;;;;;;5006621;28;20034;-42
2022/04/27 10:32:43;;;;;;;1.77;0.60;;;23.60;40.40;;;;;;5005767;28;20030;-42
2022/04/27 10:35:12;;;;;;;1.83;0.68;;;23.60;40.40;;;;;;5005872;28;20026;-43
2022/04/27 10:37:57;;;;;;;1.77;0.65;;;23.60;40.30;;;;;;4999348;28;20026;-42
2022/04/27 10:40:40;;;;;;;1.33;0.50;;;23.60;40.40;;;;;;4986569;28;20680;-42
2022/04/27 10:43:11;;;;;;;1.30;0.63;;;23.60;40.30;;;;;;4986458;28;20543;-43
2022/04/27 10:45:39;;;;;;;1.58;0.70;;;23.60;40.30;;;;;;4986756;28;20041;-42
2022/04/27 10:48:17;;;;;;;1.80;0.80;;;23.60;40.30;;;;;;4985268;28;20053;-43
2022/04/27 10:51:07;;;;;;;0.73;0.32;;;23.50;40.30;;;;;;4985145;28;20395;-42
2022/04/27 10:53:40;;;;;;;2.13;0.50;;;23.50;40.30;;;;;;4998207;28;20044;-42
2022/04/27 10:56:22;;;;;;;1.85;0.65;;;23.60;40.30;;;;;;5006228;28;20053;-42
2022/04/27 10:58:48;;;;;;;1.05;0.50;;;23.50;40.30;;;;;;5004553;28;20030;-43
2022/04/27 11:01:19;;;;;;;1.10;0.50;;;23.50;40.30;;;;;;5005622;28;20030;-42
2022/04/27 11:03:58;;;;;;;0.93;0.40;;;23.50;40.30;;;;;;5005910;28;20133;-42
2022/04/27 11:06:24;;;;;;;1.17;0.60;;;23.50;40.30;;;;;;5005910;28;20057;-42
2022/04/27 11:09:12;;;;;;;1.77;0.60;;;23.50;40.30;;;;;;5006030;28;20076;-42
2022/04/27 11:11:52;;;;;;;1.70;0.70;;;23.50;40.30;;;;;;5005536;28;20442;-42
2022/04/27 11:14:27;;;;;;;1.00;0.45;;;23.50;40.40;;;;;;5005697;28;20041;-42
2022/04/27 11:16:53;;;;;;;2.22;0.60;;;23.50;40.40;;;;;;5005781;28;20026;-42
2022/04/27 11:19:19;;;;;;;2.20;0.65;;;23.50;40.40;;;;;;5005300;28;20034;-43
2022/04/27 11:21:46;;;;;;;0.80;0.40;;;23.50;40.40;;;;;;5005096;28;20409;-43
2022/04/27 11:24:13;;;;;;;1.73;0.52;;;23.50;40.50;;;;;;5005108;28;20026;-42
2022/04/27 11:26:44;;;;;;;1.45;0.52;;;23.50;40.50;;;;;;5005675;28;20101;-43
2022/04/27 11:29:14;;;;;;;1.98;0.60;;;23.50;40.50;;;;;;5005569;28;20156;-43
2022/04/27 11:31:43;;;;;;;1.10;0.70;;;23.50;40.50;;;;;;5004992;28;20037;-41
2022/04/27 11:34:28;;;;;;;1.42;0.60;;;23.50;40.40;;;;;;5005518;28;20037;-42
2022/04/27 11:36:54;;;;;;;1.58;0.60;;;23.50;40.40;;;;;;5005717;28;20505;-42
2022/04/27 11:39:22;;;;;;;1.30;0.50;;;23.50;41.10;;;;;;4996428;28;20357;-42
2022/04/27 11:41:56;;;;;;;1.60;0.57;;;23.50;40.40;;;;;;4985372;28;20606;-42
2022/04/27 11:44:22;;;;;;;1.90;0.70;;;23.60;40.30;;;;;;4985642;28;20125;-42
2022/04/27 11:46:47;;;;;;;1.98;0.60;;;23.60;40.30;;;;;;4985368;28;20101;-43
2022/04/27 11:49:13;;;;;;;1.42;0.50;;;23.60;40.30;;;;;;4985231;28;20117;-42
2022/04/27 11:51:46;;;;;;;1.33;0.60;;;23.60;40.30;;;;;;4985111;28;20023;-42
2022/04/27 11:54:27;;;;;;;1.25;0.63;;;23.60;40.30;;;;;;5001604;28;20107;-42
2022/04/27 11:57:01;;;;;;;0.93;0.40;;;23.70;40.40;;;;;;5004656;28;20034;-42
2022/04/27 11:59:47;;;;;;;1.30;0.57;;;23.70;40.40;;;;;;5004561;28;20099;-43
2022/04/27 12:02:13;;;;;;;0.90;0.40;;;23.70;40.30;;;;;;5004632;28;20029;-43
2022/04/27 12:04:42;;;;;;;1.38;0.57;;;23.70;40.30;;;;;;5004931;28;20080;-42
2022/04/27 12:07:12;;;;;;;1.52;0.50;;;23.70;40.20;;;;;;5004761;28;20034;-42
2022/04/27 12:09:37;;;;;;;1.52;0.70;;;23.70;40.20;;;;;;5004282;28;20030;-42
2022/04/27 12:12:11;;;;;;;1.35;0.50;;;23.70;40.30;;;;;;5004205;28;20465;-42
2022/04/27 12:14:41;;;;;;;1.48;0.70;;;23.70;40.20;;;;;;5004962;28;20022;-42
2022/04/27 12:17:09;;;;;;;2.00;0.73;;;23.70;40.10;;;;;;5004542;28;20058;-42
2022/04/27 12:19:36;;;;;;;0.47;0.30;;;23.70;40.10;;;;;;5004818;28;20034;-42
2022/04/27 12:22:15;;;;;;;1.10;0.60;;;23.70;40.20;;;;;;5004597;28;20026;-42
2022/04/27 12:24:45;;;;;;;0.85;0.40;;;23.70;40.10;;;;;;4983869;28;20038;-42
2022/04/27 12:27:21;;;;;;;1.25;0.50;;;23.70;40.10;;;;;;4985294;28;20027;-42
2022/04/27 12:29:47;;;;;;;1.75;0.60;;;23.70;40.00;;;;;;4985347;28;20113;-42
2022/04/27 12:32:13;;;;;;;1.42;0.50;;;23.70;40.00;;;;;;4986904;28;20105;-42
2022/04/27 12:37:31;;;;;;;1.40;0.60;;;23.70;39.90;;;;;;4989710;28;20065;-42
2022/04/27 12:40:10;;;;;;;;;;;23.70;40.00;;;;;;5003869;28;20088;-42
2022/04/27 12:42:37;;;;;;;1.05;0.57;;;23.70;40.00;;;;;;5007996;28;19910;-42
2022/04/27 12:45:09;;;;;;;1.83;0.50;;;23.70;39.90;;;;;;5008413;28;20113;-42
2022/04/27 12:47:48;;;;;;;1.02;0.40;;;23.70;40.00;;;;;;5008044;28;20105;-42
2022/04/27 12:50:13;;;;;;;1.08;0.60;;;23.70;39.90;;;;;;5008697;28;20724;-42
2022/04/27 12:52:39;;;;;;;1.05;0.43;;;23.70;39.80;;;;;;5007841;28;20080;-41
2022/04/27 12:55:07;;;;;;;0.75;0.32;;;23.70;39.80;;;;;;5008480;28;20034;-42
2022/04/27 12:58:03;;;;;;;1.20;0.60;;;23.70;39.80;;;;;;5008324;28;20553;-42
2022/04/27 13:00:48;;;;;;;1.33;0.65;;;23.70;39.80;;;;;;4999671;28;20045;-42
2022/04/27 13:03:14;;;;;;;1.10;0.50;;;23.70;39.80;;;;;;5007619;28;20018;-43
2022/04/27 13:05:42;;;;;;;0.80;0.40;;;23.70;39.80;;;;;;5007986;28;20014;-42
2022/04/27 13:08:11;;;;;;;0.77;0.43;;;23.70;39.80;;;;;;5007355;28;20033;-43
2022/04/27 13:13:23;;;;;;;1.38;0.65;;;23.70;40.00;;;;;;5007504;28;20087;-43